sensor_id;sensor_type;location;lat;lon;timestamp;pressure;altitude;pressure_sealevel;temperature;humidity
51333;BME280;37417;48.118;11.734;2023-08-01T00:00:13;94700.25;;;18.82;97.60
51333;BME280;37417;48.118;11.734;2023-08-01T00:02:59;94699.44;;;18.92;94.66
51333;BME280;37417;48.118;11.734;2023-08-01T00:05:45;94684.91;;;19.00;92.98
51333;BME280;37417;48.118;11.734;2023-08-01T00:08:30;94681.97;;;19.16;91.74
51333;BME280;37417;48.118;11.734;2023-08-01T00:11:16;94676.97;;;19.10;91.41
51333;BME280;37417;48.118;11.734;2023-08-01T00:14:02;94666.94;;;19.07;91.46
51333;BME280;37417;48.118;11.734;2023-08-01T00:16:47;94673.53;;;19.14;91.10
51333;BME280;37417;48.118;11.734;2023-08-01T00:19:33;94655.31;;;19.13;91.25
51333;BME280;37417;48.118;11.734;2023-08-01T00:22:19;94659.28;;;19.00;92.22
51333;BME280;37417;48.118;11.734;2023-08-01T00:25:05;94641.84;;;18.94;93.17
51333;BME280;37417;48.118;11.734;2023-08-01T00:27:51;94647.66;;;18.91;93.26
51333;BME280;37417;48.118;11.734;2023-08-01T00:30:37;94649.00;;;18.93;93.20
51333;BME280;37417;48.118;11.734;2023-08-01T00:33:22;94641.06;;;18.93;93.25
51333;BME280;37417;48.118;11.734;2023-08-01T00:36:08;94637.34;;;18.94;92.63
51333;BME280;37417;48.118;11.734;2023-08-01T00:38:57;94623.81;;;19.06;91.77
51333;BME280;37417;48.118;11.734;2023-08-01T00:41:43;94621.47;;;19.05;90.99
51333;BME280;37417;48.118;11.734;2023-08-01T00:44:29;94617.47;;;19.12;90.74
51333;BME280;37417;48.118;11.734;2023-08-01T00:47:15;94607.16;;;19.11;90.53
51333;BME280;37417;48.118;11.734;2023-08-01T00:50:01;94598.16;;;19.17;90.61
51333;BME280;37417;48.118;11.734;2023-08-01T00:52:48;94596.31;;;19.23;90.59
51333;BME280;37417;48.118;11.734;2023-08-01T00:55:36;94602.38;;;19.18;90.91
51333;BME280;37417;48.118;11.734;2023-08-01T00:58:22;94586.78;;;19.21;91.68
51333;BME280;37417;48.118;11.734;2023-08-01T01:01:07;94582.84;;;19.14;91.51
51333;BME280;37417;48.118;11.734;2023-08-01T01:03:53;94578.09;;;19.06;92.76
51333;BME280;37417;48.118;11.734;2023-08-01T01:06:51;94577.03;;;19.12;94.33
51333;BME280;37417;48.118;11.734;2023-08-01T01:09:38;94575.50;;;19.01;95.07
51333;BME280;37417;48.118;11.734;2023-08-01T01:12:24;94580.25;;;18.99;95.67
51333;BME280;37417;48.118;11.734;2023-08-01T01:15:10;94571.28;;;18.94;96.07
51333;BME280;37417;48.118;11.734;2023-08-01T01:17:55;94563.88;;;18.97;95.52
51333;BME280;37417;48.118;11.734;2023-08-01T01:20:41;94564.38;;;19.04;95.15
51333;BME280;37417;48.118;11.734;2023-08-01T01:23:27;94556.72;;;19.07;95.50
51333;BME280;37417;48.118;11.734;2023-08-01T01:26:14;94548.00;;;19.07;95.57
51333;BME280;37417;48.118;11.734;2023-08-01T01:29:03;94549.59;;;19.03;95.53
51333;BME280;37417;48.118;11.734;2023-08-01T01:31:50;94540.31;;;19.10;95.79
51333;BME280;37417;48.118;11.734;2023-08-01T01:34:35;94544.81;;;19.00;96.83
51333;BME280;37417;48.118;11.734;2023-08-01T01:37:21;94550.38;;;19.03;97.29
51333;BME280;37417;48.118;11.734;2023-08-01T01:40:07;94543.25;;;18.99;99.14
51333;BME280;37417;48.118;11.734;2023-08-01T01:42:53;94547.50;;;18.89;99.55
51333;BME280;37417;48.118;11.734;2023-08-01T01:45:38;94547.50;;;18.89;100.00
51333;BME280;37417;48.118;11.734;2023-08-01T01:48:24;94545.38;;;18.86;100.00
51333;BME280;37417;48.118;11.734;2023-08-01T01:51:10;94539.88;;;18.83;100.00
51333;BME280;37417;48.118;11.734;2023-08-01T01:53:55;94536.16;;;18.84;100.00
51333;BME280;37417;48.118;11.734;2023-08-01T01:56:41;94535.09;;;18.90;100.00
51333;BME280;37417;48.118;11.734;2023-08-01T01:59:27;94524.78;;;18.88;100.00
51333;BME280;37417;48.118;11.734;2023-08-01T02:02:12;94525.53;;;18.99;100.00
51333;BME280;37417;48.118;11.734;2023-08-01T02:04:58;94529.25;;;18.93;100.00
51333;BME280;37417;48.118;11.734;2023-08-01T02:07:44;94527.19;;;18.80;100.00
51333;BME280;37417;48.118;11.734;2023-08-01T02:10:30;94528.00;;;18.60;100.00
51333;BME280;37417;48.118;11.734;2023-08-01T02:13:16;94502.41;;;18.35;100.00
51333;BME280;37417;48.118;11.734;2023-08-01T02:16:02;94496.91;;;18.36;100.00
51333;BME280;37417;48.118;11.734;2023-08-01T02:18:47;94498.47;;;18.43;100.00
51333;BME280;37417;48.118;11.734;2023-08-01T02:21:33;94489.16;;;18.65;100.00
51333;BME280;37417;48.118;11.734;2023-08-01T02:24:19;94495.75;;;18.73;100.00
51333;BME280;37417;48.118;11.734;2023-08-01T02:27:05;94496.25;;;18.90;100.00
51333;BME280;37417;48.118;11.734;2023-08-01T02:29:50;94484.84;;;19.00;100.00
51333;BME280;37417;48.118;11.734;2023-08-01T02:32:36;94475.56;;;19.08;100.00
51333;BME280;37417;48.118;11.734;2023-08-01T02:35:22;94472.91;;;19.13;100.00
51333;BME280;37417;48.118;11.734;2023-08-01T02:38:07;94473.69;;;19.13;100.00
51333;BME280;37417;48.118;11.734;2023-08-01T02:40:53;94472.16;;;19.02;100.00
51333;BME280;37417;48.118;11.734;2023-08-01T02:43:39;94466.34;;;19.00;100.00
51333;BME280;37417;48.118;11.734;2023-08-01T02:46:24;94467.97;;;18.91;100.00
51333;BME280;37417;48.118;11.734;2023-08-01T02:49:13;94464.81;;;18.84;100.00
51333;BME280;37417;48.118;11.734;2023-08-01T02:51:58;94464.06;;;18.78;100.00
51333;BME280;37417;48.118;11.734;2023-08-01T02:54:44;94471.22;;;18.67;100.00
51333;BME280;37417;48.118;11.734;2023-08-01T02:57:30;94472.00;;;18.63;100.00
51333;BME280;37417;48.118;11.734;2023-08-01T03:00:16;94473.84;;;18.62;100.00
51333;BME280;37417;48.118;11.734;2023-08-01T03:03:02;94480.44;;;18.65;100.00
51333;BME280;37417;48.118;11.734;2023-08-01T03:05:48;94475.72;;;18.62;100.00
51333;BME280;37417;48.118;11.734;2023-08-01T03:08:34;94484.66;;;18.66;100.00
51333;BME280;37417;48.118;11.734;2023-08-01T03:11:19;94473.31;;;18.71;100.00
51333;BME280;37417;48.118;11.734;2023-08-01T03:14:05;94484.16;;;18.74;100.00
51333;BME280;37417;48.118;11.734;2023-08-01T03:16:51;94487.31;;;18.81;100.00
51333;BME280;37417;48.118;11.734;2023-08-01T03:19:36;94485.69;;;18.85;100.00
51333;BME280;37417;48.118;11.734;2023-08-01T03:22:22;94485.69;;;18.80;100.00
51333;BME280;37417;48.118;11.734;2023-08-01T03:25:08;94474.91;;;18.72;100.00
51333;BME280;37417;48.118;11.734;2023-08-01T03:27:54;94463.03;;;18.74;100.00
51333;BME280;37417;48.118;11.734;2023-08-01T03:30:39;94466.19;;;18.71;100.00
51333;BME280;37417;48.118;11.734;2023-08-01T03:33:25;94485.22;;;18.58;100.00
51333;BME280;37417;48.118;11.734;2023-08-01T03:36:11;94485.28;;;18.27;100.00
51333;BME280;37417;48.118;11.734;2023-08-01T03:38:57;94493.75;;;18.24;100.00
51333;BME280;37417;48.118;11.734;2023-08-01T03:41:43;94492.41;;;18.22;100.00
51333;BME280;37417;48.118;11.734;2023-08-01T03:44:28;94492.97;;;18.19;100.00
51333;BME280;37417;48.118;11.734;2023-08-01T03:47:14;94499.28;;;18.12;100.00
51333;BME280;37417;48.118;11.734;2023-08-01T03:50:00;94507.75;;;18.04;100.00
51333;BME280;37417;48.118;11.734;2023-08-01T03:52:45;94512.75;;;18.06;100.00
51333;BME280;37417;48.118;11.734;2023-08-01T03:55:31;94509.34;;;18.05;100.00
51333;BME280;37417;48.118;11.734;2023-08-01T03:58:17;94511.69;;;18.07;100.00
51333;BME280;37417;48.118;11.734;2023-08-01T04:01:02;94520.69;;;18.11;100.00
51333;BME280;37417;48.118;11.734;2023-08-01T04:03:48;94514.34;;;18.02;100.00
51333;BME280;37417;48.118;11.734;2023-08-01T04:06:33;94515.91;;;18.08;100.00
51333;BME280;37417;48.118;11.734;2023-08-01T04:09:19;94511.69;;;18.22;100.00
51333;BME280;37417;48.118;11.734;2023-08-01T04:12:05;94523.53;;;18.40;100.00
51333;BME280;37417;48.118;11.734;2023-08-01T04:14:52;94523.81;;;18.38;100.00
51333;BME280;37417;48.118;11.734;2023-08-01T04:17:37;94518.28;;;18.30;100.00
51333;BME280;37417;48.118;11.734;2023-08-01T04:20:23;94521.47;;;18.11;100.00
51333;BME280;37417;48.118;11.734;2023-08-01T04:23:09;94523.03;;;18.02;100.00
51333;BME280;37417;48.118;11.734;2023-08-01T04:25:54;94529.88;;;17.83;100.00
51333;BME280;37417;48.118;11.734;2023-08-01T04:28:40;94554.34;;;17.58;100.00
51333;BME280;37417;48.118;11.734;2023-08-01T04:31:25;94549.59;;;17.55;100.00
51333;BME280;37417;48.118;11.734;2023-08-01T04:34:11;94553.31;;;17.59;100.00
51333;BME280;37417;48.118;11.734;2023-08-01T04:36:57;94552.78;;;17.62;100.00
51333;BME280;37417;48.118;11.734;2023-08-01T04:39:42;94557.50;;;17.50;100.00
51333;BME280;37417;48.118;11.734;2023-08-01T04:42:28;94559.81;;;17.31;100.00
51333;BME280;37417;48.118;11.734;2023-08-01T04:45:14;94574.31;;;17.28;100.00
51333;BME280;37417;48.118;11.734;2023-08-01T04:48:00;94582.75;;;17.30;100.00
51333;BME280;37417;48.118;11.734;2023-08-01T04:50:46;94586.38;;;17.19;100.00
51333;BME280;37417;48.118;11.734;2023-08-01T04:53:32;94581.94;;;17.25;100.00
51333;BME280;37417;48.118;11.734;2023-08-01T04:56:17;94579.31;;;17.30;100.00
51333;BME280;37417;48.118;11.734;2023-08-01T04:59:03;94572.44;;;17.24;100.00
51333;BME280;37417;48.118;11.734;2023-08-01T05:01:49;94571.16;;;17.26;100.00
51333;BME280;37417;48.118;11.734;2023-08-01T05:04:35;94575.56;;;17.11;100.00
51333;BME280;37417;48.118;11.734;2023-08-01T05:07:20;94569.53;;;17.15;100.00
51333;BME280;37417;48.118;11.734;2023-08-01T05:10:06;94575.56;;;17.11;100.00
51333;BME280;37417;48.118;11.734;2023-08-01T05:12:52;94591.53;;;16.89;100.00
51333;BME280;37417;48.118;11.734;2023-08-01T05:15:38;94605.91;;;16.71;100.00
51333;BME280;37417;48.118;11.734;2023-08-01T05:18:23;94618.69;;;16.57;100.00
51333;BME280;37417;48.118;11.734;2023-08-01T05:21:09;94635.53;;;16.56;100.00
51333;BME280;37417;48.118;11.734;2023-08-01T05:23:55;94642.00;;;16.43;100.00
51333;BME280;37417;48.118;11.734;2023-08-01T05:26:40;94642.00;;;16.43;100.00
51333;BME280;37417;48.118;11.734;2023-08-01T05:29:26;94643.25;;;16.36;100.00
51333;BME280;37417;48.118;11.734;2023-08-01T05:32:12;94626.91;;;16.34;100.00
51333;BME280;37417;48.118;11.734;2023-08-01T05:34:57;94630.06;;;16.31;100.00
51333;BME280;37417;48.118;11.734;2023-08-01T05:37:43;94626.13;;;16.33;100.00
51333;BME280;37417;48.118;11.734;2023-08-01T05:40:28;94630.84;;;16.31;100.00
51333;BME280;37417;48.118;11.734;2023-08-01T05:43:14;94639.81;;;16.30;100.00
51333;BME280;37417;48.118;11.734;2023-08-01T05:46:00;94632.69;;;16.31;100.00
51333;BME280;37417;48.118;11.734;2023-08-01T05:48:45;94658.69;;;16.27;100.00
51333;BME280;37417;48.118;11.734;2023-08-01T05:51:31;94659.00;;;16.31;100.00
51333;BME280;37417;48.118;11.734;2023-08-01T05:54:17;94663.72;;;16.29;100.00
51333;BME280;37417;48.118;11.734;2023-08-01T05:57:03;94647.97;;;16.34;100.00
51333;BME280;37417;48.118;11.734;2023-08-01T05:59:48;94653.97;;;16.29;100.00
51333;BME280;37417;48.118;11.734;2023-08-01T06:02:34;94651.66;;;16.33;100.00
51333;BME280;37417;48.118;11.734;2023-08-01T06:05:20;94634.34;;;16.42;100.00
51333;BME280;37417;48.118;11.734;2023-08-01T06:08:06;94628.59;;;16.45;100.00
51333;BME280;37417;48.118;11.734;2023-08-01T06:10:53;94629.13;;;16.47;100.00
51333;BME280;37417;48.118;11.734;2023-08-01T06:13:39;94618.31;;;16.43;100.00
51333;BME280;37417;48.118;11.734;2023-08-01T06:16:25;94633.91;;;16.50;100.00
51333;BME280;37417;48.118;11.734;2023-08-01T06:19:10;94645.44;;;16.44;100.00
51333;BME280;37417;48.118;11.734;2023-08-01T06:21:56;94618.69;;;16.57;100.00
51333;BME280;37417;48.118;11.734;2023-08-01T06:24:41;94610.00;;;16.57;100.00
51333;BME280;37417;48.118;11.734;2023-08-01T06:27:27;94613.38;;;16.52;100.00
51333;BME280;37417;48.118;11.734;2023-08-01T06:30:13;94583.88;;;16.50;100.00
51333;BME280;37417;48.118;11.734;2023-08-01T06:32:58;94575.28;;;16.65;100.00
51333;BME280;37417;48.118;11.734;2023-08-01T06:35:44;94574.97;;;16.61;100.00
51333;BME280;37417;48.118;11.734;2023-08-01T06:38:30;94552.34;;;16.60;100.00
51333;BME280;37417;48.118;11.734;2023-08-01T06:41:15;94541.94;;;16.81;100.00
51333;BME280;37417;48.118;11.734;2023-08-01T06:44:01;94513.91;;;17.17;100.00
51333;BME280;37417;48.118;11.734;2023-08-01T06:46:47;94477.59;;;17.34;100.00
51333;BME280;37417;48.118;11.734;2023-08-01T06:49:33;94446.75;;;17.50;100.00
51333;BME280;37417;48.118;11.734;2023-08-01T06:52:19;94448.09;;;17.63;100.00
51333;BME280;37417;48.118;11.734;2023-08-01T06:55:04;94443.63;;;17.83;100.00
51333;BME280;37417;48.118;11.734;2023-08-01T06:57:50;94399.56;;;17.89;100.00
51333;BME280;37417;48.118;11.734;2023-08-01T07:00:36;94397.72;;;18.05;100.00
51333;BME280;37417;48.118;11.734;2023-08-01T07:03:22;94395.06;;;18.05;100.00
51333;BME280;37417;48.118;11.734;2023-08-01T07:06:07;94399.25;;;18.16;100.00
51333;BME280;37417;48.118;11.734;2023-08-01T07:08:53;94383.94;;;18.23;100.00
51333;BME280;37417;48.118;11.734;2023-08-01T07:11:39;94382.59;;;18.31;100.00
51333;BME280;37417;48.118;11.734;2023-08-01T07:14:24;94393.38;;;18.39;100.00
51333;BME280;37417;48.118;11.734;2023-08-01T07:17:10;94379.16;;;18.35;100.00
51333;BME280;37417;48.118;11.734;2023-08-01T07:19:55;94363.28;;;18.40;100.00
51333;BME280;37417;48.118;11.734;2023-08-01T07:22:41;94347.97;;;18.43;100.00
51333;BME280;37417;48.118;11.734;2023-08-01T07:25:27;94360.41;;;18.32;100.00
51333;BME280;37417;48.118;11.734;2023-08-01T07:28:12;94361.72;;;18.34;100.00
51333;BME280;37417;48.118;11.734;2023-08-01T07:31:03;94347.19;;;18.37;100.00
51333;BME280;37417;48.118;11.734;2023-08-01T07:33:50;94302.84;;;18.34;100.00
51333;BME280;37417;48.118;11.734;2023-08-01T07:36:35;94329.53;;;18.32;100.00
51333;BME280;37417;48.118;11.734;2023-08-01T07:39:21;94324.25;;;18.32;100.00
51333;BME280;37417;48.118;11.734;2023-08-01T07:42:07;94333.16;;;18.41;100.00
51333;BME280;37417;48.118;11.734;2023-08-01T07:44:52;94347.97;;;18.43;100.00
51333;BME280;37417;48.118;11.734;2023-08-01T07:47:39;94375.97;;;18.38;100.00
51333;BME280;37417;48.118;11.734;2023-08-01T07:50:25;94367.72;;;18.50;100.00
51333;BME280;37417;48.118;11.734;2023-08-01T07:53:11;94321.78;;;18.51;100.00
51333;BME280;37417;48.118;11.734;2023-08-01T07:55:57;94304.88;;;18.52;100.00
51333;BME280;37417;48.118;11.734;2023-08-01T07:58:42;94324.13;;;18.53;100.00
51333;BME280;37417;48.118;11.734;2023-08-01T08:01:28;94346.78;;;18.74;100.00
51333;BME280;37417;48.118;11.734;2023-08-01T08:04:14;94337.31;;;18.68;100.00
51333;BME280;37417;48.118;11.734;2023-08-01T08:06:59;94342.31;;;18.64;100.00
51333;BME280;37417;48.118;11.734;2023-08-01T08:09:45;94374.47;;;18.02;100.00
51333;BME280;37417;48.118;11.734;2023-08-01T08:12:32;94360.78;;;17.69;100.00
51333;BME280;37417;48.118;11.734;2023-08-01T08:15:17;94350.00;;;17.66;100.00
51333;BME280;37417;48.118;11.734;2023-08-01T08:18:05;94366.88;;;17.59;100.00
51333;BME280;37417;48.118;11.734;2023-08-01T08:20:50;94348.16;;;17.81;100.00
51333;BME280;37417;48.118;11.734;2023-08-01T08:23:36;94325.13;;;18.07;100.00
51333;BME280;37417;48.118;11.734;2023-08-01T08:26:22;94318.78;;;18.13;100.00
51333;BME280;37417;48.118;11.734;2023-08-01T08:29:07;94324.25;;;18.27;100.00
51333;BME280;37417;48.118;11.734;2023-08-01T08:31:53;94354.53;;;18.50;100.00
51333;BME280;37417;48.118;11.734;2023-08-01T08:34:38;94373.03;;;19.00;100.00
51333;BME280;37417;48.118;11.734;2023-08-01T08:37:25;94357.44;;;19.03;100.00
51333;BME280;37417;48.118;11.734;2023-08-01T08:40:12;94376.09;;;19.17;100.00
51333;BME280;37417;48.118;11.734;2023-08-01T08:43:01;94367.34;;;19.56;100.00
51333;BME280;37417;48.118;11.734;2023-08-01T08:45:48;94355.69;;;19.91;100.00
51333;BME280;37417;48.118;11.734;2023-08-01T08:48:35;94346.66;;;20.40;100.00
51333;BME280;37417;48.118;11.734;2023-08-01T08:51:21;94350.56;;;20.47;100.00
51333;BME280;37417;48.118;11.734;2023-08-01T08:54:07;94351.00;;;20.97;100.00
51333;BME280;37417;48.118;11.734;2023-08-01T08:56:53;94343.81;;;20.98;100.00
51333;BME280;37417;48.118;11.734;2023-08-01T08:59:42;94349.91;;;20.79;100.00
51333;BME280;37417;48.118;11.734;2023-08-01T09:02:28;94374.81;;;20.36;100.00
51333;BME280;37417;48.118;11.734;2023-08-01T09:05:14;94379.59;;;20.58;100.00
51333;BME280;37417;48.118;11.734;2023-08-01T09:08:03;94366.63;;;20.32;100.00
51333;BME280;37417;48.118;11.734;2023-08-01T09:10:49;94387.09;;;20.26;100.00
51333;BME280;37417;48.118;11.734;2023-08-01T09:13:35;94372.91;;;20.17;100.00
51333;BME280;37417;48.118;11.734;2023-08-01T09:16:22;94361.09;;;20.28;100.00
51333;BME280;37417;48.118;11.734;2023-08-01T09:19:08;94364.09;;;19.98;100.00
51333;BME280;37417;48.118;11.734;2023-08-01T09:21:54;94372.00;;;20.03;100.00
51333;BME280;37417;48.118;11.734;2023-08-01T09:24:50;94364.84;;;20.04;100.00
51333;BME280;37417;48.118;11.734;2023-08-01T09:27:36;94331.25;;;20.23;100.00
51333;BME280;37417;48.118;11.734;2023-08-01T09:30:22;94348.78;;;20.19;100.00
51333;BME280;37417;48.118;11.734;2023-08-01T09:33:08;94356.28;;;20.12;100.00
51333;BME280;37417;48.118;11.734;2023-08-01T09:35:53;94378.25;;;20.12;100.00
51333;BME280;37417;48.118;11.734;2023-08-01T09:38:39;94364.03;;;20.03;100.00
51333;BME280;37417;48.118;11.734;2023-08-01T09:41:25;94379.78;;;19.89;100.00
51333;BME280;37417;48.118;11.734;2023-08-01T09:44:14;94386.56;;;20.00;100.00
51333;BME280;37417;48.118;11.734;2023-08-01T09:47:03;94401.41;;;19.96;100.00
51333;BME280;37417;48.118;11.734;2023-08-01T09:49:49;94390.09;;;19.57;100.00
51333;BME280;37417;48.118;11.734;2023-08-01T09:52:39;94395.00;;;19.73;100.00
51333;BME280;37417;48.118;11.734;2023-08-01T09:55:32;94379.75;;;19.65;100.00
51333;BME280;37417;48.118;11.734;2023-08-01T09:58:20;94376.94;;;20.10;100.00
51333;BME280;37417;48.118;11.734;2023-08-01T10:01:07;94367.47;;;20.04;100.00
51333;BME280;37417;48.118;11.734;2023-08-01T10:03:56;94388.44;;;20.24;100.00
51333;BME280;37417;48.118;11.734;2023-08-01T10:06:43;94396.78;;;20.12;100.00
51333;BME280;37417;48.118;11.734;2023-08-01T10:09:31;94380.56;;;19.90;100.00
51333;BME280;37417;48.118;11.734;2023-08-01T10:12:17;94398.78;;;19.67;100.00
51333;BME280;37417;48.118;11.734;2023-08-01T10:15:06;94418.75;;;19.44;100.00
51333;BME280;37417;48.118;11.734;2023-08-01T10:17:52;94414.63;;;18.84;100.00
51333;BME280;37417;48.118;11.734;2023-08-01T10:20:38;94421.19;;;18.91;100.00
51333;BME280;37417;48.118;11.734;2023-08-01T10:23:25;94415.31;;;19.05;100.00
51333;BME280;37417;48.118;11.734;2023-08-01T10:26:11;94315.44;;;19.02;100.00
51333;BME280;37417;48.118;11.734;2023-08-01T10:28:57;94408.44;;;19.04;100.00
51333;BME280;37417;48.118;11.734;2023-08-01T10:31:54;94408.97;;;19.45;100.00
51333;BME280;37417;48.118;11.734;2023-08-01T10:34:50;94393.28;;;19.59;100.00
51333;BME280;37417;48.118;11.734;2023-08-01T10:37:43;94409.06;;;19.69;100.00
51333;BME280;37417;48.118;11.734;2023-08-01T10:40:33;94408.28;;;19.68;100.00
51333;BME280;37417;48.118;11.734;2023-08-01T10:43:20;94395.19;;;19.48;100.00
51333;BME280;37417;48.118;11.734;2023-08-01T10:46:06;94387.88;;;20.27;100.00
51333;BME280;37417;48.118;11.734;2023-08-01T10:48:53;94390.09;;;19.62;100.00
51333;BME280;37417;48.118;11.734;2023-08-01T10:51:38;94389.06;;;19.53;100.00
51333;BME280;37417;48.118;11.734;2023-08-01T10:54:25;94375.44;;;19.35;100.00
51333;BME280;37417;48.118;11.734;2023-08-01T10:57:17;94372.50;;;19.03;100.00
51333;BME280;37417;48.118;11.734;2023-08-01T11:00:04;94375.75;;;18.89;100.00
51333;BME280;37417;48.118;11.734;2023-08-01T11:02:54;94367.91;;;18.74;100.00
51333;BME280;37417;48.118;11.734;2023-08-01T11:05:40;94362.94;;;18.62;100.00
51333;BME280;37417;48.118;11.734;2023-08-01T11:08:34;94333.06;;;18.67;100.00
51333;BME280;37417;48.118;11.734;2023-08-01T11:11:20;94367.63;;;18.81;100.00
51333;BME280;37417;48.118;11.734;2023-08-01T11:14:06;94384.53;;;19.19;100.00
51333;BME280;37417;48.118;11.734;2023-08-01T11:16:54;94364.00;;;19.06;100.00
51333;BME280;37417;48.118;11.734;2023-08-01T11:19:40;94341.91;;;18.91;100.00
51333;BME280;37417;48.118;11.734;2023-08-01T11:22:26;94354.84;;;18.93;100.00
51333;BME280;37417;48.118;11.734;2023-08-01T11:25:12;94384.97;;;18.27;100.00
51333;BME280;37417;48.118;11.734;2023-08-01T11:27:58;94380.25;;;18.09;100.00
51333;BME280;37417;48.118;11.734;2023-08-01T11:30:46;94361.06;;;17.98;100.00
51333;BME280;37417;48.118;11.734;2023-08-01T11:33:32;94401.38;;;18.19;100.00
51333;BME280;37417;48.118;11.734;2023-08-01T11:36:17;94378.38;;;18.25;100.00
51333;BME280;37417;48.118;11.734;2023-08-01T11:39:03;94387.63;;;18.22;100.00
51333;BME280;37417;48.118;11.734;2023-08-01T11:41:49;94400.56;;;18.24;100.00
51333;BME280;37417;48.118;11.734;2023-08-01T11:44:35;94422.47;;;18.19;100.00
51333;BME280;37417;48.118;11.734;2023-08-01T11:47:20;94393.19;;;18.16;100.00
51333;BME280;37417;48.118;11.734;2023-08-01T11:50:06;94397.44;;;18.17;100.00
51333;BME280;37417;48.118;11.734;2023-08-01T11:52:53;94400.34;;;18.10;100.00
51333;BME280;37417;48.118;11.734;2023-08-01T11:55:38;94414.50;;;18.34;100.00
51333;BME280;37417;48.118;11.734;2023-08-01T11:58:33;94412.94;;;18.38;100.00
51333;BME280;37417;48.118;11.734;2023-08-01T12:01:19;94400.03;;;18.22;100.00
51333;BME280;37417;48.118;11.734;2023-08-01T12:04:05;94392.06;;;18.42;100.00
51333;BME280;37417;48.118;11.734;2023-08-01T12:06:50;94385.47;;;18.39;100.00
51333;BME280;37417;48.118;11.734;2023-08-01T12:09:36;94398.00;;;18.78;100.00
51333;BME280;37417;48.118;11.734;2023-08-01T12:12:22;94407.03;;;18.62;100.00
51333;BME280;37417;48.118;11.734;2023-08-01T12:15:08;94413.09;;;18.73;100.00
51333;BME280;37417;48.118;11.734;2023-08-01T12:17:53;94419.72;;;18.70;100.00
51333;BME280;37417;48.118;11.734;2023-08-01T12:20:39;94418.06;;;18.79;100.00
51333;BME280;37417;48.118;11.734;2023-08-01T12:23:25;94403.31;;;19.17;100.00
51333;BME280;37417;48.118;11.734;2023-08-01T12:26:12;94420.25;;;19.16;100.00
51333;BME280;37417;48.118;11.734;2023-08-01T12:28:57;94400.81;;;19.36;100.00
51333;BME280;37417;48.118;11.734;2023-08-01T12:31:43;94445.09;;;19.65;100.00
51333;BME280;37417;48.118;11.734;2023-08-01T12:34:29;94437.75;;;19.91;100.00
51333;BME280;37417;48.118;11.734;2023-08-01T12:37:15;94443.25;;;19.94;100.00
51333;BME280;37417;48.118;11.734;2023-08-01T12:40:00;94427.84;;;20.01;100.00
51333;BME280;37417;48.118;11.734;2023-08-01T12:42:46;94432.59;;;19.70;100.00
51333;BME280;37417;48.118;11.734;2023-08-01T12:45:32;94418.81;;;19.73;100.00
51333;BME280;37417;48.118;11.734;2023-08-01T12:48:18;94439.25;;;19.68;100.00
51333;BME280;37417;48.118;11.734;2023-08-01T12:51:04;94434.00;;;19.97;100.00
51333;BME280;37417;48.118;11.734;2023-08-01T12:53:49;94425.59;;;20.67;100.00
51333;BME280;37417;48.118;11.734;2023-08-01T12:56:35;94414.53;;;20.60;100.00
51333;BME280;37417;48.118;11.734;2023-08-01T12:59:21;94401.56;;;20.34;100.00
51333;BME280;37417;48.118;11.734;2023-08-01T13:02:06;94407.38;;;20.36;100.00
51333;BME280;37417;48.118;11.734;2023-08-01T13:04:53;94404.19;;;21.06;100.00
51333;BME280;37417;48.118;11.734;2023-08-01T13:07:39;94425.13;;;21.45;100.00
51333;BME280;37417;48.118;11.734;2023-08-01T13:10:25;94391.28;;;21.37;100.00
51333;BME280;37417;48.118;11.734;2023-08-01T13:13:10;94416.03;;;22.85;100.00
51333;BME280;37417;48.118;11.734;2023-08-01T13:15:56;94405.47;;;21.08;100.00
51333;BME280;37417;48.118;11.734;2023-08-01T13:18:43;94385.78;;;20.72;100.00
51333;BME280;37417;48.118;11.734;2023-08-01T13:21:29;94387.28;;;20.35;100.00
51333;BME280;37417;48.118;11.734;2023-08-01T13:24:15;94389.91;;;19.82;100.00
51333;BME280;37417;48.118;11.734;2023-08-01T13:27:00;94398.94;;;19.76;100.00
51333;BME280;37417;48.118;11.734;2023-08-01T13:29:46;94388.31;;;19.81;100.00
51333;BME280;37417;48.118;11.734;2023-08-01T13:32:32;94377.25;;;19.79;100.00
51333;BME280;37417;48.118;11.734;2023-08-01T13:35:17;94394.63;;;20.14;100.00
51333;BME280;37417;48.118;11.734;2023-08-01T13:38:03;94391.22;;;21.75;100.00
51333;BME280;37417;48.118;11.734;2023-08-01T13:40:50;94394.28;;;22.14;100.00
51333;BME280;37417;48.118;11.734;2023-08-01T13:43:36;94402.78;;;21.32;100.00
51333;BME280;37417;48.118;11.734;2023-08-01T13:46:21;94388.53;;;21.04;100.00
51333;BME280;37417;48.118;11.734;2023-08-01T13:49:07;94396.16;;;21.30;100.00
51333;BME280;37417;48.118;11.734;2023-08-01T13:51:53;94394.88;;;22.53;100.00
51333;BME280;37417;48.118;11.734;2023-08-01T13:54:38;94382.91;;;23.19;96.77
51333;BME280;37417;48.118;11.734;2023-08-01T13:57:26;94391.44;;;22.66;94.53
51333;BME280;37417;48.118;11.734;2023-08-01T14:00:12;94376.59;;;22.37;98.06
51333;BME280;37417;48.118;11.734;2023-08-01T14:02:58;94371.22;;;22.79;87.72
51333;BME280;37417;48.118;11.734;2023-08-01T14:05:43;94353.19;;;23.62;85.30
51333;BME280;37417;48.118;11.734;2023-08-01T14:08:29;94367.16;;;23.67;83.38
51333;BME280;37417;48.118;11.734;2023-08-01T14:11:15;94374.16;;;25.05;74.41
51333;BME280;37417;48.118;11.734;2023-08-01T14:14:00;94357.38;;;25.22;70.22
51333;BME280;37417;48.118;11.734;2023-08-01T14:16:46;94363.41;;;24.30;72.07